createdAt,value
2019-04-10T00:00:37.254Z,0.00
2019-04-10T00:02:29.349Z,0.00
2019-04-10T00:03:35.483Z,0.00
2019-04-10T00:05:22.194Z,0.00
2019-04-10T00:06:22.200Z,0.00
2019-04-10T00:08:15.099Z,0.00
2019-04-10T00:09:15.105Z,0.00
2019-04-10T00:11:08.229Z,0.00
2019-04-10T00:12:08.008Z,0.00
2019-04-10T00:14:00.916Z,0.00
2019-04-10T00:15:00.942Z,0.00
2019-04-10T00:16:54.323Z,0.00
2019-04-10T00:17:53.817Z,0.00
2019-04-10T00:19:47.689Z,0.00
2019-04-10T00:20:46.975Z,0.00
2019-04-10T00:22:39.625Z,0.00
2019-04-10T00:23:39.634Z,0.00
2019-04-10T00:25:32.864Z,0.00
2019-04-10T00:26:32.533Z,0.00
2019-04-10T00:28:25.560Z,0.00
2019-04-10T00:29:25.451Z,0.00
2019-04-10T00:31:18.350Z,0.00
2019-04-10T00:32:19.309Z,0.00
2019-04-10T00:34:11.576Z,0.00
2019-04-10T00:35:11.264Z,0.00
2019-04-10T00:37:04.159Z,0.00
2019-04-10T00:38:05.136Z,0.00
2019-04-10T00:39:57.145Z,0.00
2019-04-10T00:40:57.542Z,0.00
2019-04-10T00:42:49.972Z,0.00
2019-04-10T00:43:50.968Z,0.00
2019-04-10T00:45:43.893Z,0.00
2019-04-10T00:46:42.875Z,0.00
2019-04-10T00:48:36.272Z,0.00
2019-04-10T00:49:35.783Z,0.00
2019-04-10T00:51:29.668Z,0.00
2019-04-10T00:52:30.372Z,0.00
2019-04-10T00:54:23.644Z,0.00
2019-04-10T00:55:23.492Z,0.00
2019-04-10T00:57:15.474Z,0.00
2019-04-10T00:58:16.221Z,0.00
2019-04-10T01:00:08.619Z,0.00
2019-04-10T01:01:08.388Z,0.00
2019-04-10T01:03:01.289Z,0.00
2019-04-10T01:04:02.661Z,0.00
2019-04-10T01:05:54.184Z,0.00
2019-04-10T01:06:54.557Z,0.00
2019-04-10T01:08:47.102Z,0.00
2019-04-10T01:09:47.890Z,0.00
2019-04-10T03:09:30.465Z,0.00
2019-04-10T03:10:24.569Z,0.00
2019-04-10T03:12:07.969Z,0.00
2019-04-10T03:13:06.157Z,0.00
2019-04-10T03:14:59.228Z,0.00
2019-04-10T03:15:59.967Z,0.00
2019-04-10T03:17:52.428Z,0.00
2019-04-10T03:18:52.922Z,0.00
2019-04-10T03:20:44.876Z,0.00
2019-04-10T03:21:45.062Z,0.00
2019-04-10T03:23:37.846Z,0.00
2019-04-10T03:24:38.134Z,0.00
2019-04-10T03:26:30.685Z,0.00
2019-04-10T03:27:30.752Z,0.00
2019-04-10T03:29:24.075Z,0.00
2019-04-10T03:30:23.854Z,0.00
2019-04-10T03:32:16.797Z,0.00
2019-04-10T03:33:21.263Z,0.00
2019-04-10T03:35:10.271Z,0.00
2019-04-10T03:36:09.552Z,0.00
2019-04-10T03:38:02.499Z,0.00
2019-04-10T03:39:05.848Z,0.00
2019-04-10T03:40:55.562Z,0.00
2019-04-10T03:41:55.182Z,0.00
2019-04-10T03:43:48.072Z,0.00
2019-04-10T03:44:48.078Z,0.00
2019-04-10T03:46:40.983Z,0.00
2019-04-10T03:47:41.818Z,0.00
2019-04-10T03:49:33.980Z,0.00
2019-04-10T03:50:34.075Z,0.00
2019-04-10T03:52:27.444Z,0.00
2019-04-10T03:53:26.773Z,0.00
2019-04-10T03:55:20.894Z,0.00
2019-04-10T03:56:19.678Z,0.00
2019-04-10T03:58:13.479Z,0.00
2019-04-10T03:59:12.576Z,0.00
2019-04-10T04:01:05.479Z,0.00
2019-04-10T04:02:05.480Z,0.00
2019-04-10T04:03:59.330Z,0.00
2019-04-10T04:04:58.378Z,0.00
2019-04-10T04:06:52.268Z,0.00
2019-04-10T04:07:51.279Z,4.00
2019-04-10T04:09:44.174Z,0.00
2019-04-10T04:10:44.706Z,4.00
2019-04-10T04:12:37.098Z,0.00
2019-04-10T04:13:37.076Z,4.00
2019-04-10T04:15:30.326Z,4.00
2019-04-10T04:16:30.875Z,8.00
2019-04-10T04:18:22.988Z,12.00
2019-04-10T04:19:24.004Z,8.00
2019-04-10T04:21:15.795Z,12.00
2019-04-10T04:22:16.690Z,16.00
2019-04-10T04:24:09.386Z,20.00
2019-04-10T04:25:08.742Z,28.00
2019-04-10T04:27:02.716Z,32.00
2019-04-10T04:28:02.564Z,40.00
2019-04-10T04:29:55.330Z,56.00
2019-04-10T04:30:54.490Z,60.00
2019-04-10T04:32:48.368Z,76.00
2019-04-10T04:33:47.389Z,88.00
2019-04-10T04:35:40.854Z,112.00
2019-04-10T04:36:40.901Z,124.00
2019-04-10T04:38:33.184Z,152.00
2019-04-10T04:39:33.235Z,172.00
2019-04-10T04:41:26.084Z,204.00
2019-04-10T04:42:26.526Z,224.00
2019-04-10T04:44:20.166Z,268.00
2019-04-10T04:45:19.472Z,292.00
2019-04-10T04:47:11.882Z,340.00
2019-04-10T04:48:11.882Z,368.00
2019-04-10T04:50:05.569Z,424.00
2019-04-10T04:51:04.780Z,456.00
2019-04-10T04:52:58.228Z,524.00
2019-04-10T04:53:57.680Z,556.00
2019-04-10T04:55:51.419Z,628.00
2019-04-10T04:56:50.578Z,668.00
2019-04-10T04:58:43.569Z,752.00
2019-04-10T04:59:43.484Z,792.00
2019-04-10T05:01:36.376Z,876.00
2019-04-10T05:02:37.211Z,920.00
2019-04-10T05:04:31.927Z,1016.00
2019-04-10T05:05:29.376Z,1060.00
2019-04-10T05:07:22.489Z,1160.00
2019-04-10T05:08:22.171Z,1212.00
2019-04-10T05:10:15.330Z,1312.00
2019-04-10T05:11:15.070Z,1364.00
2019-04-10T05:13:08.226Z,1472.00
2019-04-10T05:14:08.106Z,1524.00
2019-04-10T05:16:00.862Z,1624.00
2019-04-10T05:17:00.865Z,1680.00
2019-04-10T05:18:54.110Z,1780.00
2019-04-10T05:19:54.585Z,1828.00
2019-04-10T05:21:47.614Z,1932.00
2019-04-10T05:22:46.658Z,1988.00
2019-04-10T05:24:40.425Z,2096.00
2019-04-10T05:25:39.555Z,2156.00
2019-04-10T05:27:33.071Z,2260.00
2019-04-10T05:28:32.751Z,2312.00
2019-04-10T05:30:25.361Z,2408.00
2019-04-10T05:31:25.584Z,2460.00
2019-04-10T05:33:18.393Z,2664.00
2019-04-10T05:34:18.251Z,2848.00
2019-04-10T05:36:11.206Z,2736.00
2019-04-10T05:37:11.484Z,2804.00
2019-04-10T05:39:04.241Z,3012.00
2019-04-10T05:40:04.048Z,3320.00
2019-04-10T05:41:56.949Z,3324.00
2019-04-10T05:42:57.447Z,3208.00
2019-04-10T05:44:50.183Z,3216.00
2019-04-10T05:45:50.674Z,3508.00
2019-04-10T05:47:42.753Z,3824.00
2019-04-10T05:48:42.749Z,3900.00
2019-04-10T05:50:35.740Z,3772.00
2019-04-10T05:51:35.648Z,3916.00
2019-04-10T05:53:28.860Z,4016.00
2019-04-10T05:54:28.551Z,4048.00
2019-04-10T05:56:22.415Z,3836.00
2019-04-10T05:57:21.445Z,4004.00
2019-04-10T05:59:14.648Z,4260.00
2019-04-10T06:00:14.532Z,4820.00
2019-04-10T06:02:08.028Z,5008.00
2019-04-10T06:03:08.083Z,4824.00
2019-04-10T06:05:00.202Z,4428.00
2019-04-10T06:06:01.156Z,4952.00
2019-04-10T06:07:53.850Z,6232.00
2019-04-10T06:08:53.043Z,6560.00
2019-04-10T06:10:45.951Z,6656.00
2019-04-10T06:11:47.249Z,6788.00
2019-04-10T06:13:38.894Z,6796.00
2019-04-10T06:14:39.886Z,6880.00
2019-04-10T06:16:32.271Z,7056.00
2019-04-10T06:17:32.282Z,7232.00
2019-04-10T06:19:25.495Z,7456.00
2019-04-10T06:20:25.119Z,7556.00
2019-04-10T06:22:18.622Z,7800.00
2019-04-10T06:23:17.561Z,7936.00
2019-04-10T06:25:11.720Z,8208.00
2019-04-10T06:26:10.465Z,8356.00
2019-04-10T06:28:03.371Z,8428.00
2019-04-10T06:29:04.408Z,8356.00
2019-04-10T06:30:56.595Z,8412.00
2019-04-10T06:31:56.883Z,8460.00
2019-04-10T06:33:49.177Z,8584.00
2019-04-10T06:34:50.121Z,8676.00
2019-04-10T06:36:42.095Z,8720.00
2019-04-10T06:37:42.283Z,8760.00
2019-04-10T06:39:35.283Z,8924.00
2019-04-10T06:40:35.567Z,8968.00
2019-04-10T06:42:27.907Z,9128.00
2019-04-10T06:43:28.769Z,9152.00
2019-04-10T06:45:21.789Z,9188.00
2019-04-10T06:46:20.826Z,9288.00
2019-04-10T06:48:13.734Z,9316.00
2019-04-10T06:49:14.483Z,8588.00
2019-04-10T06:51:06.644Z,5988.00
2019-04-10T06:52:06.649Z,5692.00
2019-04-10T06:54:04.917Z,5616.00
2019-04-10T06:55:00.702Z,5616.00
2019-04-10T06:56:52.586Z,5580.00
2019-04-10T06:57:57.224Z,5596.00
2019-04-10T06:59:46.098Z,5680.00
2019-04-10T07:00:48.617Z,5744.00
2019-04-10T07:02:38.836Z,5836.00
2019-04-10T07:03:49.546Z,5868.00
2019-04-10T07:05:37.950Z,5948.00
2019-04-10T07:06:47.133Z,6048.00
2019-04-10T07:08:25.695Z,6344.00
2019-04-10T07:09:26.225Z,6540.00
2019-04-10T07:11:18.560Z,7132.00
2019-04-10T07:12:16.999Z,7400.00
2019-04-10T07:14:12.603Z,7652.00
2019-04-10T07:15:10.649Z,7560.00
2019-04-10T07:17:05.486Z,6892.00
2019-04-10T07:18:03.080Z,6508.00
2019-04-10T07:19:55.712Z,6096.00
2019-04-10T07:20:58.357Z,6028.00
2019-04-10T07:22:49.684Z,6064.00
2019-04-10T07:23:49.007Z,6060.00
2019-04-10T07:25:44.569Z,5880.00
2019-04-10T07:26:44.883Z,5788.00
2019-04-10T07:28:36.642Z,5668.00
2019-04-10T07:29:34.433Z,5640.00
2019-04-10T07:31:27.632Z,5628.00
2019-04-10T07:32:27.830Z,5668.00
2019-04-10T07:34:22.050Z,5692.00
2019-04-10T07:35:21.819Z,5676.00
2019-04-10T07:37:17.522Z,5676.00
2019-04-10T07:38:13.936Z,5644.00
2019-04-10T07:40:06.078Z,5616.00
2019-04-10T07:41:13.679Z,5576.00
2019-04-10T07:42:59.089Z,5556.00
2019-04-10T07:43:59.094Z,5560.00
2019-04-10T07:45:51.993Z,5576.00
2019-04-10T07:46:52.929Z,5592.00
2019-04-10T07:48:45.553Z,5532.00
2019-04-10T07:49:44.901Z,5476.00
2019-04-10T07:51:38.824Z,5376.00
2019-04-10T07:52:37.806Z,5332.00
2019-04-10T07:54:30.921Z,5308.00
2019-04-10T07:55:30.916Z,5308.00
2019-04-10T07:57:24.523Z,5304.00
2019-04-10T07:58:23.677Z,5312.00
2019-04-10T08:00:16.519Z,5336.00
2019-04-10T08:01:16.526Z,5320.00
2019-04-10T08:03:09.427Z,5296.00
2019-04-10T08:04:10.450Z,5268.00
2019-04-10T08:06:02.443Z,5220.00
2019-04-10T08:07:03.068Z,5188.00
2019-04-10T08:08:55.491Z,5088.00
2019-04-10T08:09:55.242Z,5012.00
2019-04-10T08:11:48.892Z,4972.00
2019-04-10T08:12:52.138Z,4956.00
2019-04-10T08:14:42.011Z,4932.00
2019-04-10T08:15:41.238Z,4940.00
2019-04-10T08:17:34.567Z,4916.00
2019-04-10T08:18:35.031Z,4900.00
2019-04-10T08:20:26.857Z,4872.00
2019-04-10T08:21:27.384Z,4868.00
2019-04-10T08:23:19.805Z,4856.00
2019-04-10T08:24:20.269Z,4840.00
2019-04-10T08:26:12.676Z,4812.00
2019-04-10T08:27:13.669Z,4792.00
2019-04-10T08:29:05.774Z,4768.00
2019-04-10T08:30:05.587Z,4748.00
2019-04-10T08:31:59.212Z,4708.00
2019-04-10T08:33:01.224Z,4688.00
2019-04-10T08:34:51.390Z,4680.00
2019-04-10T08:35:51.397Z,4672.00
2019-04-10T08:37:45.303Z,4700.00
2019-04-10T08:38:44.560Z,4700.00
2019-04-10T08:40:38.266Z,4708.00
2019-04-10T08:41:37.335Z,4700.00
2019-04-10T08:43:31.245Z,4688.00
2019-04-10T08:44:30.119Z,4680.00
2019-04-10T08:46:23.931Z,4632.00
2019-04-10T08:47:23.033Z,4604.00
2019-04-10T08:49:16.305Z,4604.00
2019-04-10T08:50:15.942Z,4588.00
2019-04-10T08:52:08.842Z,4556.00
2019-04-10T08:53:09.629Z,4528.00
2019-04-10T08:55:01.970Z,4476.00
2019-04-10T08:56:02.353Z,4444.00
2019-04-10T08:57:54.662Z,4416.00
2019-04-10T08:58:55.134Z,4408.00
2019-04-10T09:00:47.565Z,4396.00
2019-04-10T09:01:47.572Z,4372.00
2019-04-10T09:03:41.278Z,4348.00
2019-04-10T09:04:41.324Z,4324.00
2019-04-10T09:06:33.635Z,4324.00
2019-04-10T09:07:33.384Z,4332.00
2019-04-10T09:09:26.280Z,4352.00
2019-04-10T09:10:26.290Z,4340.00
2019-04-10T09:12:19.832Z,4328.00
2019-04-10T09:13:20.147Z,4340.00
2019-04-10T09:15:12.099Z,4340.00
2019-04-10T09:16:12.205Z,4340.00
2019-04-10T09:18:06.018Z,4324.00
2019-04-10T09:19:05.572Z,4320.00
2019-04-10T09:20:57.910Z,4304.00
2019-04-10T09:21:57.919Z,4288.00
2019-04-10T09:23:53.443Z,4260.00
2019-04-10T09:24:50.829Z,4224.00
2019-04-10T09:26:44.542Z,4204.00
2019-04-10T09:27:44.206Z,4184.00
2019-04-10T09:29:36.637Z,4160.00
2019-04-10T09:30:37.271Z,4124.00
2019-04-10T09:32:30.566Z,4068.00
2019-04-10T09:33:31.230Z,4052.00
2019-04-10T09:35:22.587Z,4028.00
2019-04-10T09:36:22.460Z,4024.00
2019-04-10T09:38:15.364Z,4028.00
2019-04-10T09:39:15.369Z,4024.00
2019-04-10T09:41:08.272Z,3980.00
2019-04-10T09:42:08.680Z,3964.00
2019-04-10T09:44:02.382Z,3948.00
2019-04-10T09:45:01.185Z,3956.00
2019-04-10T09:46:54.095Z,3924.00
2019-04-10T09:47:54.093Z,3904.00
2019-04-10T09:49:47.213Z,3912.00
2019-04-10T09:50:48.047Z,3892.00
2019-04-10T09:52:39.912Z,3860.00
2019-04-10T09:53:39.914Z,3832.00
2019-04-10T09:55:32.823Z,3816.00
2019-04-10T09:56:32.824Z,3808.00
2019-04-10T09:58:26.197Z,3780.00
2019-04-10T09:59:33.184Z,3776.00
2019-04-10T10:01:19.847Z,3792.00
2019-04-10T10:02:19.560Z,3780.00
2019-04-10T10:04:11.545Z,3752.00
2019-04-10T10:05:12.521Z,3744.00
2019-04-10T10:07:04.458Z,3736.00
2019-04-10T10:08:04.462Z,3704.00
2019-04-10T10:10:00.413Z,3680.00
2019-04-10T10:10:57.649Z,3676.00
2019-04-10T10:12:50.550Z,3692.00
2019-04-10T10:13:50.280Z,3716.00
2019-04-10T10:15:43.248Z,3816.00
2019-04-10T10:16:44.169Z,3760.00
2019-04-10T10:18:37.258Z,3672.00
2019-04-10T10:19:36.323Z,3692.00
2019-04-10T10:21:29.022Z,3704.00
2019-04-10T10:22:29.380Z,3672.00
2019-04-10T10:24:22.501Z,3660.00
2019-04-10T10:25:21.917Z,3672.00
2019-04-10T10:27:15.677Z,3760.00
2019-04-10T10:28:15.294Z,3872.00
2019-04-10T10:30:07.727Z,3764.00
2019-04-10T10:31:08.184Z,4024.00
2019-04-10T10:33:01.489Z,3988.00
2019-04-10T10:34:01.811Z,3828.00
2019-04-10T10:35:53.635Z,4300.00
2019-04-10T10:36:53.557Z,5348.00
2019-04-10T10:38:47.449Z,4916.00
2019-04-10T10:39:47.260Z,4336.00
2019-04-10T10:41:40.422Z,4124.00
2019-04-10T10:42:40.996Z,3940.00
2019-04-10T10:44:32.339Z,3716.00
2019-04-10T10:45:32.283Z,3696.00
2019-04-10T10:47:26.183Z,3780.00
2019-04-10T10:48:25.195Z,4164.00
2019-04-10T10:50:19.065Z,4208.00
2019-04-10T10:51:18.334Z,4168.00
2019-04-10T10:53:12.225Z,4740.00
2019-04-10T10:54:11.021Z,6064.00
2019-04-10T10:56:04.288Z,7724.00
2019-04-10T10:57:03.934Z,6916.00
2019-04-10T10:58:58.818Z,4444.00
2019-04-10T10:59:57.699Z,4272.00
2019-04-10T11:01:49.755Z,5448.00
2019-04-10T11:02:49.912Z,6600.00
2019-04-10T11:04:43.387Z,7024.00
2019-04-10T11:05:42.671Z,6800.00
2019-04-10T11:07:35.578Z,6204.00
2019-04-10T11:08:35.583Z,5280.00
2019-04-10T11:10:29.786Z,5680.00
2019-04-10T11:11:28.495Z,6524.00
2019-04-10T11:13:22.559Z,5912.00
2019-04-10T11:14:21.595Z,6280.00
2019-04-10T11:16:14.500Z,7280.00
2019-04-10T11:17:15.524Z,7324.00
2019-04-10T11:19:07.228Z,5864.00
2019-04-10T11:20:08.094Z,5956.00
2019-04-10T11:22:00.143Z,4804.00
2019-04-10T11:23:00.484Z,5264.00
2019-04-10T11:24:53.347Z,5516.00
2019-04-10T11:25:55.140Z,5088.00
2019-04-10T11:27:45.970Z,6068.00
2019-04-10T11:28:45.977Z,6556.00
2019-04-10T11:30:38.884Z,10332.00
2019-04-10T11:31:39.675Z,10296.00
2019-04-10T11:33:32.956Z,10080.00
2019-04-10T11:34:33.533Z,8816.00
2019-04-10T11:36:25.888Z,7100.00
2019-04-10T11:37:36.668Z,5832.00
2019-04-10T11:39:23.407Z,5420.00
2019-04-10T11:40:18.143Z,4896.00
2019-04-10T11:42:10.543Z,4940.00
2019-04-10T11:43:12.325Z,4488.00
2019-04-10T11:45:05.192Z,3560.00
2019-04-10T11:46:04.181Z,3720.00
2019-04-10T11:47:56.552Z,4824.00
2019-04-10T11:48:56.399Z,5732.00
2019-04-10T11:50:50.880Z,5108.00
2019-04-10T11:51:50.860Z,4120.00
2019-04-10T11:53:47.236Z,3896.00
2019-04-10T11:54:44.472Z,4492.00
2019-04-10T11:56:36.224Z,5300.00
2019-04-10T11:57:35.115Z,5036.00
2019-04-10T11:59:28.888Z,4192.00
2019-04-10T12:00:30.217Z,4032.00
2019-04-10T12:03:22.618Z,3460.00
2019-04-10T12:05:19.081Z,3864.00
2019-04-10T12:06:15.706Z,3960.00
2019-04-10T12:08:33.543Z,3860.00
2019-04-10T12:09:29.058Z,3612.00
2019-04-10T12:11:59.678Z,3532.00
2019-04-10T12:13:52.607Z,4252.00
2019-04-10T12:14:52.595Z,4704.00
2019-04-10T12:16:45.496Z,4472.00
2019-04-10T12:17:46.448Z,3780.00
2019-04-10T12:19:38.459Z,3680.00
2019-04-10T12:20:38.422Z,4028.00
2019-04-10T12:22:31.699Z,4944.00
2019-04-10T12:23:31.338Z,4536.00
2019-04-10T12:25:24.974Z,3648.00
2019-04-10T12:26:24.248Z,3840.00
2019-04-10T12:28:17.975Z,4540.00
2019-04-10T12:29:18.276Z,5124.00
2019-04-10T12:31:10.092Z,5800.00
2019-04-10T12:32:10.086Z,5980.00
2019-04-10T12:34:03.266Z,5680.00
2019-04-10T12:35:02.986Z,5808.00
2019-04-10T12:36:55.885Z,8004.00
2019-04-10T12:38:02.441Z,8292.00
2019-04-10T12:39:49.480Z,6520.00
2019-04-10T12:40:48.810Z,5512.00
2019-04-10T12:42:41.720Z,3804.00
2019-04-10T12:43:41.725Z,3360.00
2019-04-10T12:45:34.625Z,3196.00
2019-04-10T12:46:35.154Z,3392.00
2019-04-10T12:48:28.520Z,3496.00
2019-04-10T12:49:27.699Z,3596.00
2019-04-10T12:51:21.473Z,3892.00
2019-04-10T12:52:20.684Z,3644.00
2019-04-10T12:54:13.379Z,3284.00
2019-04-10T12:55:14.427Z,3204.00
2019-04-10T12:57:06.512Z,3212.00
2019-04-10T12:58:11.428Z,3244.00
2019-04-10T13:00:03.692Z,3328.00
2019-04-10T13:01:00.383Z,3400.00
2019-04-10T13:02:52.476Z,3660.00
2019-04-10T13:03:52.122Z,3992.00
2019-04-10T13:05:45.285Z,4908.00
2019-04-10T13:06:46.311Z,5420.00
2019-04-10T13:08:54.373Z,5548.00
2019-04-10T13:09:37.982Z,4504.00
2019-04-10T13:11:30.853Z,3456.00
2019-04-10T13:12:31.286Z,3200.00
2019-04-10T13:14:24.403Z,3096.00
2019-04-10T13:15:23.779Z,3272.00
2019-04-10T13:17:16.682Z,3724.00
2019-04-10T13:18:16.692Z,4252.00
2019-04-10T13:20:09.630Z,5040.00
2019-04-10T13:21:10.397Z,4428.00
2019-04-10T13:23:02.546Z,3156.00
2019-04-10T13:24:03.655Z,3016.00
2019-04-10T13:26:00.983Z,2976.00
2019-04-10T13:26:56.475Z,2940.00
2019-04-10T13:28:48.429Z,3096.00
2019-04-10T13:29:48.829Z,3096.00
2019-04-10T13:31:42.465Z,3308.00
2019-04-10T13:32:42.327Z,3496.00
2019-04-10T13:34:35.218Z,3660.00
2019-04-10T13:35:34.439Z,3528.00
2019-04-10T13:37:28.365Z,3212.00
2019-04-10T13:38:32.377Z,3204.00
2019-04-10T13:40:20.060Z,3096.00
2019-04-10T13:41:20.754Z,3084.00
2019-04-10T13:43:13.782Z,3092.00
2019-04-10T13:44:14.045Z,3072.00
2019-04-10T13:46:06.803Z,3076.00
2019-04-10T13:47:07.034Z,3104.00
2019-04-10T13:48:59.791Z,3136.00
2019-04-10T13:50:00.052Z,3192.00
2019-04-10T13:51:52.212Z,3396.00
2019-04-10T13:52:53.498Z,3336.00
2019-04-10T13:54:45.554Z,3028.00
2019-04-10T13:55:45.363Z,3104.00
2019-04-10T13:57:39.163Z,3572.00
2019-04-10T13:58:38.046Z,3372.00
2019-04-10T14:00:30.951Z,3152.00
2019-04-10T14:01:31.570Z,3060.00
2019-04-10T14:03:23.915Z,2948.00
2019-04-10T14:04:25.016Z,2960.00
2019-04-10T14:06:17.223Z,2912.00
2019-04-10T14:07:17.672Z,2904.00
2019-04-10T14:09:26.361Z,2920.00
2019-04-10T14:10:10.516Z,2964.00
2019-04-10T14:12:03.884Z,3088.00
2019-04-10T14:13:03.238Z,3212.00
2019-04-10T14:14:55.533Z,3524.00
2019-04-10T14:15:56.050Z,3792.00
2019-04-10T14:17:48.452Z,4312.00
2019-04-10T14:18:48.754Z,4392.00
2019-04-10T14:20:41.853Z,3344.00
2019-04-10T14:21:42.860Z,3276.00
2019-04-10T14:23:35.306Z,3644.00
2019-04-10T14:24:42.808Z,3920.00
2019-04-10T14:26:39.154Z,4820.00
2019-04-10T14:27:27.937Z,4360.00
2019-04-10T14:29:20.677Z,3280.00
2019-04-10T14:30:21.021Z,2904.00
2019-04-10T14:32:13.524Z,2684.00
2019-04-10T14:33:13.528Z,2688.00
2019-04-10T14:35:08.063Z,2776.00
2019-04-10T14:36:07.493Z,2924.00
2019-04-10T14:37:59.358Z,2996.00
2019-04-10T14:39:10.218Z,3048.00
2019-04-10T14:40:52.259Z,3188.00
2019-04-10T14:41:52.274Z,3256.00
2019-04-10T14:43:45.772Z,3612.00
2019-04-10T14:44:45.228Z,4008.00
2019-04-10T14:46:38.145Z,4764.00
2019-04-10T14:47:39.190Z,5576.00
2019-04-10T14:49:31.368Z,5656.00
2019-04-10T14:50:31.636Z,5252.00
2019-04-10T14:52:23.965Z,3700.00
2019-04-10T14:53:24.878Z,3228.00
2019-04-10T14:55:19.198Z,2788.00
2019-04-10T14:56:17.837Z,2832.00
2019-04-10T14:58:20.583Z,2864.00
2019-04-10T14:59:09.801Z,2884.00
2019-04-10T15:01:03.906Z,2804.00
2019-04-10T15:02:02.734Z,2792.00
2019-04-10T15:03:55.643Z,2828.00
2019-04-10T15:04:55.650Z,2844.00
2019-04-10T15:06:48.555Z,2840.00
2019-04-10T15:07:48.569Z,2848.00
2019-04-10T15:09:41.497Z,2896.00
2019-04-10T15:10:41.481Z,2940.00
2019-04-10T15:12:34.396Z,3124.00
2019-04-10T15:13:34.397Z,3296.00
2019-04-10T15:15:28.094Z,3764.00
2019-04-10T15:16:27.412Z,3952.00
2019-04-10T15:18:20.516Z,3608.00
2019-04-10T15:19:20.557Z,3288.00
2019-04-10T15:21:13.129Z,2796.00
2019-04-10T15:22:13.730Z,2764.00
2019-04-10T15:24:07.010Z,2748.00
2019-04-10T15:25:06.794Z,2756.00
2019-04-10T15:26:59.092Z,2768.00
2019-04-10T15:28:00.152Z,2744.00
2019-04-10T15:29:52.623Z,2720.00
2019-04-10T15:30:53.004Z,2812.00
2019-04-10T15:32:45.409Z,2844.00
2019-04-10T15:33:44.931Z,2856.00
2019-04-10T15:35:38.367Z,2844.00
2019-04-10T15:36:38.053Z,2812.00
2019-04-10T15:38:30.757Z,2700.00
2019-04-10T15:39:35.687Z,2664.00
2019-04-10T15:41:23.902Z,2656.00
2019-04-10T15:42:23.896Z,2660.00
2019-04-10T15:44:16.593Z,2648.00
2019-04-10T15:45:16.597Z,2644.00
2019-04-10T15:47:17.516Z,2644.00
2019-04-10T15:48:10.448Z,2652.00
2019-04-10T15:50:02.419Z,2620.00
2019-04-10T15:51:03.534Z,2600.00
2019-04-10T15:52:55.774Z,2556.00
2019-04-10T15:53:55.338Z,2536.00
2019-04-10T15:55:49.269Z,2512.00
2019-04-10T15:56:48.251Z,2504.00
2019-04-10T15:58:41.667Z,2496.00
2019-04-10T15:59:41.166Z,2492.00
2019-04-10T16:01:35.072Z,2472.00
2019-04-10T16:02:34.079Z,2464.00
2019-04-10T16:04:27.538Z,2456.00
2019-04-10T16:05:26.992Z,2452.00
2019-04-10T16:07:20.258Z,2456.00
2019-04-10T16:08:20.454Z,2456.00
2019-04-10T16:10:12.813Z,2452.00
2019-04-10T16:11:13.815Z,2448.00
2019-04-10T16:13:06.052Z,2428.00
2019-04-10T16:14:16.681Z,2416.00
2019-04-10T16:15:58.930Z,2392.00
2019-04-10T16:16:59.146Z,2380.00
2019-04-10T16:18:51.557Z,2376.00
2019-04-10T16:19:51.568Z,2372.00
2019-04-10T16:21:44.465Z,2372.00
2019-04-10T16:22:44.769Z,2368.00
2019-04-10T16:24:37.381Z,2356.00
2019-04-10T16:25:38.090Z,2344.00
2019-04-10T16:27:30.716Z,2324.00
2019-04-10T16:28:31.378Z,2312.00
2019-04-10T16:30:24.157Z,2288.00
2019-04-10T16:31:23.515Z,2272.00
2019-04-10T16:33:16.871Z,2256.00
2019-04-10T16:34:16.123Z,2244.00
2019-04-10T16:36:09.029Z,2216.00
2019-04-10T16:37:09.040Z,2200.00
2019-04-10T16:39:02.917Z,2172.00
2019-04-10T16:40:05.422Z,2160.00
2019-04-10T16:41:54.852Z,2124.00
2019-04-10T16:42:55.210Z,2116.00
2019-04-10T16:44:47.772Z,2084.00
2019-04-10T16:45:48.900Z,2072.00
2019-04-10T16:47:40.683Z,2052.00
2019-04-10T16:48:40.704Z,2044.00
2019-04-10T16:50:34.154Z,2024.00
2019-04-10T16:51:34.423Z,2016.00
2019-04-10T16:53:27.850Z,1992.00
2019-04-10T16:54:27.190Z,1976.00
2019-04-10T16:56:19.419Z,1948.00
2019-04-10T16:57:20.590Z,1936.00
2019-04-10T16:59:12.340Z,1904.00
2019-04-10T17:00:14.185Z,1888.00
2019-04-10T17:02:05.244Z,1860.00
2019-04-10T17:03:05.255Z,1848.00
2019-04-10T17:04:58.551Z,1820.00
2019-04-10T17:05:58.271Z,1808.00
2019-04-10T17:07:51.654Z,1780.00
2019-04-10T17:08:52.217Z,1760.00
2019-04-10T17:10:44.837Z,1728.00
2019-04-10T17:11:45.150Z,1708.00
2019-04-10T17:13:37.008Z,1672.00
2019-04-10T17:14:37.855Z,1652.00
2019-04-10T17:16:29.912Z,1620.00
2019-04-10T17:17:30.491Z,1600.00
2019-04-10T17:19:23.698Z,1564.00
2019-04-10T17:20:24.449Z,1548.00
2019-04-10T17:22:24.158Z,1508.00
2019-04-10T17:23:16.497Z,1488.00
2019-04-10T17:25:09.664Z,1448.00
2019-04-10T17:26:09.153Z,1428.00
2019-04-10T17:28:02.049Z,1384.00
2019-04-10T17:29:03.026Z,1364.00
2019-04-10T17:30:54.975Z,1316.00
2019-04-10T17:31:55.072Z,1292.00
2019-04-10T17:33:47.983Z,1244.00
2019-04-10T17:34:49.203Z,1220.00
2019-04-10T17:36:41.096Z,1168.00
2019-04-10T17:37:40.796Z,1140.00
2019-04-10T17:39:33.708Z,1084.00
2019-04-10T17:40:43.525Z,1056.00
2019-04-10T17:42:26.619Z,1004.00
2019-04-10T17:43:27.016Z,972.00
2019-04-10T17:45:20.626Z,924.00
2019-04-10T17:46:19.531Z,896.00
2019-04-10T17:48:13.572Z,844.00
2019-04-10T17:49:12.464Z,812.00
2019-04-10T17:51:05.866Z,760.00
2019-04-10T17:52:06.317Z,732.00
2019-04-10T17:53:58.261Z,680.00
2019-04-10T17:54:58.870Z,648.00
2019-04-10T17:56:51.165Z,600.00
2019-04-10T17:57:53.254Z,568.00
2019-04-10T17:59:44.786Z,516.00
2019-04-10T18:00:45.294Z,492.00
2019-04-10T18:02:36.985Z,444.00
2019-04-10T18:03:46.085Z,416.00
2019-04-10T18:05:30.772Z,368.00
2019-04-10T18:06:31.055Z,344.00
2019-04-10T18:08:26.386Z,300.00
2019-04-10T18:09:22.816Z,280.00
2019-04-10T18:11:16.193Z,240.00
2019-04-10T18:12:16.215Z,220.00
2019-04-10T18:14:09.122Z,188.00
2019-04-10T18:15:08.640Z,168.00
2019-04-10T18:17:02.527Z,140.00
2019-04-10T18:18:01.549Z,128.00
2019-04-10T18:19:54.620Z,104.00
2019-04-10T18:20:54.461Z,96.00
2019-04-10T18:22:47.362Z,76.00
2019-04-10T18:23:47.472Z,68.00
2019-04-10T18:25:40.309Z,52.00
2019-04-10T18:26:41.543Z,44.00
2019-04-10T18:28:33.985Z,36.00
2019-04-10T18:29:33.187Z,32.00
2019-04-10T18:31:27.778Z,20.00
2019-04-10T18:32:26.119Z,20.00
2019-04-10T18:34:19.367Z,12.00
2019-04-10T18:35:19.027Z,12.00
2019-04-10T18:37:14.608Z,12.00
2019-04-10T18:38:13.135Z,8.00
2019-04-10T18:40:05.278Z,4.00
2019-04-10T18:41:08.311Z,4.00
2019-04-10T18:42:59.068Z,4.00
2019-04-10T18:43:58.528Z,4.00
2019-04-10T18:46:03.470Z,0.00
2019-04-10T18:46:50.704Z,4.00
2019-04-10T18:48:45.602Z,0.00
2019-04-10T18:49:43.612Z,0.00
2019-04-10T18:51:36.510Z,0.00
2019-04-10T18:52:37.323Z,0.00
2019-04-10T18:54:29.826Z,0.00
2019-04-10T18:55:30.096Z,0.00
2019-04-10T18:57:22.325Z,0.00
2019-04-10T18:58:23.394Z,0.00
2019-04-10T19:00:16.750Z,0.00
2019-04-10T19:01:16.133Z,0.00
2019-04-10T19:03:08.172Z,0.00
2019-04-10T19:04:08.178Z,0.00
2019-04-10T19:06:01.087Z,0.00
2019-04-10T19:07:01.109Z,0.00
2019-04-10T19:09:05.062Z,0.00
2019-04-10T19:09:54.606Z,0.00
2019-04-10T19:11:46.896Z,0.00
2019-04-10T19:12:46.905Z,0.00
2019-04-10T19:14:40.599Z,0.00
2019-04-10T19:15:40.507Z,0.00
2019-04-10T19:17:33.259Z,0.00
2019-04-10T19:18:32.742Z,0.00
2019-04-10T19:20:26.759Z,0.00
2019-04-10T19:21:25.659Z,0.00
2019-04-10T19:23:19.428Z,0.00
2019-04-10T19:24:19.626Z,0.00
2019-04-10T19:26:12.697Z,0.00
2019-04-10T19:27:11.819Z,0.00
2019-04-10T19:29:05.361Z,0.00
2019-04-10T19:30:04.803Z,0.00
2019-04-10T19:31:58.238Z,0.00
2019-04-10T19:32:57.454Z,0.00
2019-04-10T19:34:50.212Z,0.00
2019-04-10T19:35:50.937Z,0.00
2019-04-10T19:37:43.119Z,0.00
2019-04-10T19:38:43.378Z,0.00
2019-04-10T19:40:37.107Z,0.00
2019-04-10T19:41:38.443Z,0.00
2019-04-10T19:43:30.101Z,0.00
2019-04-10T19:44:29.023Z,0.00
2019-04-10T19:46:21.844Z,0.00
2019-04-10T19:47:22.079Z,0.00
2019-04-10T19:49:14.748Z,0.00
2019-04-10T19:50:14.750Z,0.00